Time;durP1;ratioP1;P1;durP2;ratioP2;P2;SDS_P1;SDS_P2;PMS_P1;PMS_P2;Temp;Humidity;BMP_temperature;BMP_pressure;BME280_temperature;BME280_humidity;BME280_pressure;Samples;Min_cycle;Max_cycle;Signal;HPM_P1;HPM_P2
2021/08/19 00:01:10;;;;;;;6.28;4.03;;;;;;;12.20;79.39;97674.92;1754911;82;21020;-84
2021/08/19 00:03:37;;;;;;;4.97;3.52;;;;;;;12.22;78.96;97677.03;1726346;82;21009;-85
2021/08/19 00:06:03;;;;;;;6.05;4.20;;;;;;;12.23;78.88;97676.98;1701116;84;21481;-85
2021/08/19 00:08:30;;;;;;;5.05;4.10;;;;;;;12.30;79.26;97686.02;1728983;82;21022;-85
2021/08/19 00:10:56;;;;;;;5.25;3.65;;;;;;;12.34;78.86;97676.50;1706710;84;21045;-85
2021/08/19 00:13:22;;;;;;;5.45;4.10;;;;;;;12.37;79.04;97680.86;1726628;82;21033;-85
2021/08/19 00:15:50;;;;;;;5.70;4.10;;;;;;;12.39;78.88;97685.63;1718344;83;21086;-85
2021/08/19 00:18:16;;;;;;;5.25;4.15;;;;;;;12.40;78.66;97684.25;1700723;83;21081;-85
2021/08/19 00:20:43;;;;;;;5.40;3.40;;;;;;;12.41;78.55;97684.64;1689518;84;20977;-85
2021/08/19 00:23:09;;;;;;;5.58;4.05;;;;;;;12.35;78.74;97693.33;1701232;83;21488;-85
2021/08/19 00:25:36;;;;;;;6.42;4.03;;;;;;;12.32;78.66;97686.34;1705167;83;20968;-86
2021/08/19 00:28:03;;;;;;;5.62;4.08;;;;;;;12.28;78.58;97684.29;1701851;84;21064;-85
2021/08/19 00:30:29;;;;;;;5.55;4.30;;;;;;;12.26;78.61;97691.44;1701198;84;21450;-85
2021/08/19 00:32:56;;;;;;;6.90;4.60;;;;;;;12.25;78.42;97690.20;1699699;84;21040;-86
2021/08/19 00:35:22;;;;;;;5.33;4.03;;;;;;;12.25;78.20;97692.86;1700686;83;20988;-85
2021/08/19 00:37:48;;;;;;;7.20;4.83;;;;;;;12.25;78.39;97692.37;1701205;84;21493;-85
2021/08/19 00:40:15;;;;;;;6.70;4.12;;;;;;;12.21;77.79;97697.41;1701166;83;21438;-85
2021/08/19 00:42:43;;;;;;;7.65;4.60;;;;;;;12.21;77.64;97692.58;1700082;84;20960;-85
2021/08/19 00:45:10;;;;;;;7.28;4.30;;;;;;;12.17;77.73;97693.63;1704089;83;21024;-85
2021/08/19 00:47:40;;;;;;;6.55;5.15;;;;;;;12.13;77.76;97685.77;1703970;83;21564;-85
2021/08/19 00:50:08;;;;;;;7.85;4.17;;;;;;;12.07;77.98;97690.02;1700274;83;21012;-85
2021/08/19 00:52:38;;;;;;;6.03;3.90;;;;;;;12.03;77.43;97691.52;1699720;84;20981;-85
2021/08/19 00:55:06;;;;;;;7.30;4.53;;;;;;;11.99;77.48;97693.41;1700882;83;21024;-85
2021/08/19 00:57:34;;;;;;;6.08;4.47;;;;;;;11.95;78.33;97697.98;1736142;83;21439;-85
2021/08/19 01:00:02;;;;;;;7.35;4.47;;;;;;;11.92;77.90;97696.77;1719259;83;21407;-85
2021/08/19 01:02:28;;;;;;;6.42;4.17;;;;;;;11.90;77.66;97695.97;1696606;84;21489;-84
2021/08/19 01:04:55;;;;;;;6.12;4.20;;;;;;;11.88;78.00;97693.86;1692117;84;20997;-85
2021/08/19 01:07:21;;;;;;;7.12;4.25;;;;;;;11.85;78.22;97692.64;1694122;83;21537;-85
2021/08/19 01:09:48;;;;;;;5.92;4.58;;;;;;;11.84;77.81;97690.44;1692399;85;21068;-85
2021/08/19 01:12:15;;;;;;;6.53;4.15;;;;;;;11.79;77.66;97700.38;1692315;84;21041;-85
2021/08/19 01:14:45;;;;;;;7.85;4.70;;;;;;;11.75;77.79;97695.66;1692104;85;21024;-85
2021/08/19 01:17:15;;;;;;;5.87;4.37;;;;;;;11.69;77.56;97694.58;1694021;83;21422;-85
2021/08/19 01:19:51;;;;;;;5.83;4.03;;;;;;;11.64;79.26;97689.91;1693638;84;21032;-86
2021/08/19 01:22:19;;;;;;;6.30;4.20;;;;;;;11.62;78.61;97691.29;1692918;85;20953;-85
2021/08/19 01:24:46;;;;;;;15.75;5.75;;;;;;;11.58;78.45;97693.66;1692156;85;21455;-86
2021/08/19 01:27:22;;;;;;;7.00;4.70;;;;;;;11.51;79.40;97693.95;1693597;83;21402;-85
2021/08/19 01:29:50;;;;;;;5.75;4.25;;;;;;;11.44;79.08;97692.87;1693555;84;21052;-86
2021/08/19 01:32:18;;;;;;;7.17;4.53;;;;;;;11.38;79.06;97689.09;1692164;84;21012;-86
2021/08/19 01:34:45;;;;;;;8.43;4.58;;;;;;;11.35;79.75;97691.41;1692514;83;21005;-87
2021/08/19 01:37:12;;;;;;;8.30;4.45;;;;;;;11.32;79.69;97693.31;1692006;84;21040;-85
2021/08/19 01:39:40;;;;;;;7.35;4.53;;;;;;;11.26;81.12;97682.50;1691810;85;21522;-85
2021/08/19 01:42:06;;;;;;;8.45;4.85;;;;;;;11.26;80.05;97689.58;1693101;84;21029;-85
2021/08/19 01:44:33;;;;;;;7.65;4.83;;;;;;;11.21;79.57;97685.30;1699952;83;21008;-85
2021/08/19 01:47:05;;;;;;;6.12;4.65;;;;;;;11.21;79.34;97685.30;1665751;86;21004;-86
2021/08/19 01:49:34;;;;;;;10.40;4.12;;;;;;;11.20;79.59;97688.88;1689520;84;20973;-86
2021/08/19 01:52:05;;;;;;;7.95;4.40;;;;;;;11.18;79.72;97685.41;1693218;84;21020;-86
2021/08/19 01:54:32;;;;;;;6.53;4.42;;;;;;;11.18;80.13;97685.88;1705661;83;21046;-86
2021/08/19 01:56:59;;;;;;;9.83;3.83;;;;;;;11.20;79.20;97687.55;1722916;83;21045;-85
2021/08/19 01:59:29;;;;;;;5.05;3.60;;;;;;;11.22;79.12;97688.83;1722883;83;21452;-86
2021/08/19 02:01:57;;;;;;;5.85;3.60;;;;;;;11.24;79.35;97694.09;1699784;83;20949;-85
2021/08/19 02:04:25;;;;;;;6.20;3.80;;;;;;;11.23;79.75;97691.88;1735462;82;21070;-86
2021/08/19 02:06:52;;;;;;;7.60;4.12;;;;;;;11.24;80.15;97692.77;1718357;83;21032;-86
2021/08/19 02:09:18;;;;;;;5.58;3.75;;;;;;;11.28;79.83;97685.06;1699218;84;21580;-86
2021/08/19 02:11:45;;;;;;;8.50;4.90;;;;;;;11.32;80.20;97691.99;1699347;84;21013;-85
2021/08/19 02:14:12;;;;;;;6.72;4.10;;;;;;;11.34;80.10;97688.36;1727727;83;20978;-85
2021/08/19 02:16:39;;;;;;;5.60;3.52;;;;;;;11.39;79.96;97684.67;1719094;82;21060;-86
2021/08/19 02:19:05;;;;;;;5.37;3.35;;;;;;;11.41;80.21;97690.80;1700887;84;21454;-85
2021/08/19 02:21:32;;;;;;;7.08;3.90;;;;;;;11.32;80.23;97682.25;1699991;84;20972;-86
2021/08/19 02:23:58;;;;;;;6.67;3.85;;;;;;;11.31;80.21;97684.52;1729267;83;21432;-86
2021/08/19 02:26:25;;;;;;;5.62;4.00;;;;;;;11.27;80.50;97688.20;1721433;82;20985;-86
2021/08/19 02:28:51;;;;;;;6.87;4.17;;;;;;;11.19;80.03;97686.28;1699585;84;21004;-86
2021/08/19 02:31:18;;;;;;;6.75;4.30;;;;;;;11.19;79.96;97691.14;1699583;84;20969;-86
2021/08/19 02:33:46;;;;;;;7.78;3.95;;;;;;;11.13;79.79;97687.36;1724031;83;20989;-85
2021/08/19 02:36:13;;;;;;;6.17;4.20;;;;;;;11.09;80.27;97687.09;1699465;84;21032;-86
2021/08/19 02:38:41;;;;;;;5.58;3.90;;;;;;;11.03;80.26;97689.50;1700760;84;21003;-86
2021/08/19 02:41:08;;;;;;;5.42;3.75;;;;;;;10.98;80.04;97690.58;1711564;83;21372;-86
2021/08/19 02:43:41;;;;;;;6.22;4.17;;;;;;;10.94;80.25;97692.48;1735836;83;21037;-85
2021/08/19 02:46:03;;;;;;;4.85;3.75;;;;;;;10.88;80.27;97698.02;1734764;83;21398;-85
2021/08/19 02:48:29;;;;;;;6.60;4.15;;;;;;;10.79;80.14;97695.20;1735794;83;21006;-85
2021/08/19 02:50:56;;;;;;;5.47;4.50;;;;;;;10.75;81.27;97698.44;1731411;83;21468;-85
2021/08/19 02:53:22;;;;;;;6.50;4.15;;;;;;;10.68;80.75;97701.75;1700306;83;21024;-86
2021/08/19 02:55:48;;;;;;;4.72;3.55;;;;;;;10.68;80.78;97704.41;1699607;83;21148;-86
2021/08/19 02:58:14;;;;;;;7.05;4.10;;;;;;;10.59;81.77;97692.80;1699259;84;21043;-85
2021/08/19 03:00:41;;;;;;;5.80;3.90;;;;;;;10.57;81.28;97705.24;1703126;83;21434;-86
2021/08/19 03:03:07;;;;;;;5.62;4.33;;;;;;;10.51;82.52;97710.77;1729945;82;21003;-85
2021/08/19 03:05:34;;;;;;;5.50;4.30;;;;;;;10.48;81.98;97700.25;1702468;83;21053;-85
2021/08/19 03:08:00;;;;;;;10.25;4.92;;;;;;;10.41;82.23;97702.20;1644769;87;21461;-85
2021/08/19 03:10:26;;;;;;;6.75;4.62;;;;;;;10.36;81.62;97705.03;1690212;83;20985;-85
2021/08/19 03:12:53;;;;;;;4.75;3.98;;;;;;;10.34;81.67;97698.90;1691918;83;21052;-85
2021/08/19 03:15:19;;;;;;;6.33;4.20;;;;;;;10.32;81.45;97707.36;1692230;85;21016;-85
2021/08/19 03:17:46;;;;;;;6.62;3.80;;;;;;;10.29;82.35;97700.83;1692687;85;21013;-86
2021/08/19 03:20:13;;;;;;;5.33;3.70;;;;;;;10.29;81.65;97714.08;1691820;85;21040;-85
2021/08/19 03:22:40;;;;;;;9.13;4.28;;;;;;;10.32;82.89;97711.34;1692253;83;20996;-86
2021/08/19 03:25:09;;;;;;;7.42;4.28;;;;;;;10.36;82.35;97716.95;1707099;83;21055;-86
2021/08/19 03:27:36;;;;;;;6.65;4.33;;;;;;;10.35;82.12;97716.55;1705827;83;21053;-86
2021/08/19 03:30:04;;;;;;;8.73;3.95;;;;;;;10.40;82.43;97711.08;1707939;83;20992;-86
2021/08/19 03:32:31;;;;;;;6.87;4.12;;;;;;;10.41;82.12;97711.48;1706220;83;20996;-86
2021/08/19 03:34:57;;;;;;;5.80;3.87;;;;;;;10.46;81.79;97710.05;1707196;83;20980;-87
2021/08/19 03:37:26;;;;;;;7.20;4.47;;;;;;;10.51;82.24;97713.41;1706334;84;21465;-86
2021/08/19 03:39:52;;;;;;;5.65;3.98;;;;;;;10.54;82.14;97718.58;1707832;83;20961;-87
2021/08/19 03:42:19;;;;;;;5.67;3.83;;;;;;;10.58;81.96;97723.34;1707225;83;21039;-86
2021/08/19 03:44:45;;;;;;;6.30;3.72;;;;;;;10.61;82.06;97732.05;1707141;83;21044;-86
2021/08/19 03:47:11;;;;;;;7.65;4.50;;;;;;;10.62;82.01;97728.92;1703206;83;21426;-87
2021/08/19 03:49:38;;;;;;;5.70;4.05;;;;;;;10.63;81.68;97730.68;1729972;82;20996;-86
2021/08/19 03:52:04;;;;;;;5.85;3.80;;;;;;;10.68;81.55;97718.13;1705632;84;20993;-87
2021/08/19 03:54:31;;;;;;;6.15;4.22;;;;;;;10.71;81.16;97723.31;1704875;84;21446;-86
2021/08/19 03:56:57;;;;;;;8.30;4.37;;;;;;;10.71;80.82;97721.98;1705692;84;21028;-86
2021/08/19 03:59:24;;;;;;;6.95;4.35;;;;;;;10.72;80.59;97726.84;1705381;82;21077;-86
2021/08/19 04:01:50;;;;;;;7.03;4.40;;;;;;;10.67;80.46;97729.66;1704944;83;21052;-86
2021/08/19 04:04:17;;;;;;;5.83;4.65;;;;;;;10.64;80.13;97734.61;1726174;82;21125;-86
2021/08/19 04:06:43;;;;;;;8.75;4.00;;;;;;;10.65;80.34;97737.66;1703020;83;21560;-86
2021/08/19 04:09:09;;;;;;;8.65;4.70;;;;;;;10.66;80.07;97734.08;1733535;83;21011;-86
2021/08/19 04:11:36;;;;;;;5.62;4.03;;;;;;;10.63;79.70;97739.48;1720541;82;20985;-86
2021/08/19 04:14:05;;;;;;;5.67;4.45;;;;;;;10.60;80.00;97734.75;1681729;82;21442;-86
2021/08/19 04:16:31;;;;;;;5.47;4.00;;;;;;;10.58;80.14;97741.42;1700752;84;20964;-87
2021/08/19 04:18:57;;;;;;;7.35;4.47;;;;;;;10.54;79.92;97745.96;1726002;82;21051;-86
2021/08/19 04:21:24;;;;;;;6.92;4.45;;;;;;;10.52;80.47;97743.84;1726243;83;21044;-86
2021/08/19 04:23:50;;;;;;;7.33;4.65;;;;;;;10.52;80.34;97749.58;1726192;83;21090;-86
2021/08/19 04:26:17;;;;;;;7.97;4.45;;;;;;;10.47;81.05;97742.25;1726491;82;21409;-87
2021/08/19 04:28:44;;;;;;;7.47;4.83;;;;;;;10.49;80.51;97744.37;1724811;83;21013;-86
2021/08/19 04:31:10;;;;;;;6.40;4.17;;;;;;;10.49;80.38;97742.59;1733706;82;21393;-85
2021/08/19 04:33:36;;;;;;;7.00;4.85;;;;;;;10.50;80.14;97740.35;1726240;82;21533;-85
2021/08/19 04:36:03;;;;;;;6.92;4.60;;;;;;;10.52;81.13;97745.61;1740663;82;21333;-85
2021/08/19 04:38:32;;;;;;;7.45;4.53;;;;;;;10.53;80.83;97738.94;1693803;84;20953;-85
2021/08/19 04:40:58;;;;;;;8.33;4.78;;;;;;;10.56;80.30;97743.27;1688945;83;20987;-86
2021/08/19 04:43:25;;;;;;;5.58;4.05;;;;;;;10.56;80.26;97744.59;1715946;83;21087;-85
2021/08/19 04:45:51;;;;;;;8.33;4.50;;;;;;;10.58;80.18;97749.84;1742025;82;20941;-85
2021/08/19 04:48:17;;;;;;;7.33;4.70;;;;;;;10.60;80.33;97746.67;1737417;82;21414;-85
2021/08/19 04:50:44;;;;;;;8.75;4.28;;;;;;;10.62;79.90;97750.13;1740077;82;20960;-85
2021/08/19 04:53:10;;;;;;;7.33;4.20;;;;;;;10.66;79.93;97743.80;1751575;82;21044;-86
2021/08/19 04:55:37;;;;;;;7.67;5.10;;;;;;;10.71;79.79;97744.99;1733920;82;21383;-85
2021/08/19 04:58:03;;;;;;;8.40;4.50;;;;;;;10.77;79.62;97740.35;1720878;83;21071;-86
2021/08/19 05:00:30;;;;;;;7.47;4.12;;;;;;;10.81;79.76;97746.41;1720871;83;21020;-85
2021/08/19 05:02:56;;;;;;;6.05;3.25;;;;;;;10.87;79.61;97747.51;1719406;82;21033;-85
2021/08/19 05:05:23;;;;;;;5.97;4.35;;;;;;;10.93;79.69;97745.95;1720078;82;21012;-86
2021/08/19 05:07:52;;;;;;;5.70;4.15;;;;;;;11.03;79.81;97742.98;1720273;83;21446;-86
2021/08/19 05:10:19;;;;;;;6.47;4.33;;;;;;;11.12;79.48;97744.47;1720711;82;21051;-86
2021/08/19 05:12:45;;;;;;;6.62;3.95;;;;;;;11.19;79.27;97738.88;1720787;82;21004;-86
2021/08/19 05:15:12;;;;;;;5.03;3.67;;;;;;;11.28;79.36;97739.45;1743761;82;20985;-85
2021/08/19 05:17:38;;;;;;;8.90;4.00;;;;;;;11.33;78.88;97741.47;1719220;83;21060;-86
2021/08/19 05:20:07;;;;;;;8.10;3.85;;;;;;;11.43;79.09;97746.87;1719197;83;20981;-86
2021/08/19 05:22:33;;;;;;;7.05;4.15;;;;;;;11.53;78.98;97738.09;1719202;83;21040;-86
2021/08/19 05:25:00;;;;;;;6.45;3.90;;;;;;;11.64;78.88;97741.67;1721097;82;20996;-86
2021/08/19 05:27:26;;;;;;;6.40;4.17;;;;;;;11.74;78.90;97741.72;1719741;82;21442;-86
2021/08/19 05:29:53;;;;;;;7.37;3.77;;;;;;;11.87;78.70;97740.78;1720939;83;20992;-84
2021/08/19 05:32:19;;;;;;;7.30;4.33;;;;;;;11.96;78.58;97734.23;1719830;83;21067;-86
2021/08/19 05:34:46;;;;;;;4.70;3.80;;;;;;;12.04;78.21;97727.77;1719585;82;20937;-86
2021/08/19 05:37:12;;;;;;;12.13;3.92;;;;;;;12.10;77.97;97733.73;1719231;83;20989;-86
2021/08/19 05:39:38;;;;;;;6.65;4.03;;;;;;;12.19;77.47;97730.28;1719411;83;21043;-86
2021/08/19 05:42:05;;;;;;;5.37;3.87;;;;;;;12.26;77.62;97731.78;1719284;83;21461;-86
2021/08/19 05:44:32;;;;;;;7.33;4.30;;;;;;;12.35;77.37;97731.86;1738579;82;21426;-85
2021/08/19 05:46:58;;;;;;;11.68;5.40;;;;;;;12.41;77.29;97730.27;1742454;82;21335;-84
2021/08/19 05:49:25;;;;;;;6.30;4.72;;;;;;;12.48;76.90;97731.76;1715995;83;20993;-86
2021/08/19 05:51:51;;;;;;;9.45;4.40;;;;;;;12.55;76.68;97733.70;1720801;82;21036;-84
2021/08/19 05:54:18;;;;;;;8.70;4.10;;;;;;;12.63;76.54;97731.56;1729879;82;21431;-85
2021/08/19 05:56:44;;;;;;;6.62;4.37;;;;;;;12.71;76.25;97726.41;1719299;83;21123;-85
2021/08/19 05:59:11;;;;;;;5.83;3.65;;;;;;;12.80;76.42;97732.66;1719540;83;21418;-85
2021/08/19 06:01:38;;;;;;;8.18;4.45;;;;;;;12.89;76.43;97727.40;1740251;82;20969;-85
2021/08/19 06:04:05;;;;;;;7.20;4.50;;;;;;;12.97;75.90;97720.41;1753586;81;20970;-85
2021/08/19 06:06:31;;;;;;;7.28;4.70;;;;;;;13.05;75.95;97719.14;1749551;81;21024;-85
2021/08/19 06:08:58;;;;;;;6.67;3.90;;;;;;;13.16;75.63;97723.14;1727117;82;20975;-85
2021/08/19 06:11:24;;;;;;;6.95;4.53;;;;;;;13.27;75.70;97719.53;1752922;82;21011;-86
2021/08/19 06:13:51;;;;;;;6.50;4.03;;;;;;;13.36;75.60;97714.73;1753959;82;20964;-86
2021/08/19 06:16:17;;;;;;;8.60;4.47;;;;;;;13.45;75.22;97714.28;1748895;82;21430;-86
2021/08/19 06:18:44;;;;;;;8.23;4.60;;;;;;;13.57;74.73;97716.88;1703922;82;21031;-86
2021/08/19 06:21:10;;;;;;;9.55;4.20;;;;;;;13.70;74.28;97718.05;1753942;82;21032;-86
2021/08/19 06:23:37;;;;;;;8.23;4.25;;;;;;;13.84;74.16;97714.72;1730665;81;21032;-86
2021/08/19 06:26:03;;;;;;;8.65;4.20;;;;;;;13.99;74.26;97718.92;1719382;83;21084;-86
2021/08/19 06:28:30;;;;;;;8.40;4.37;;;;;;;14.11;73.97;97718.80;1720104;82;21406;-83
2021/08/19 06:30:57;;;;;;;7.83;3.72;;;;;;;14.25;72.91;97722.14;1728897;80;21001;-85
2021/08/19 06:33:23;;;;;;;8.13;4.08;;;;;;;14.37;73.15;97713.52;1742377;82;20979;-84
2021/08/19 06:35:50;;;;;;;5.67;3.80;;;;;;;14.52;71.85;97712.37;1738912;82;21438;-83
2021/08/19 06:38:17;;;;;;;8.08;3.77;;;;;;;14.67;71.88;97705.41;1720680;82;20979;-83
2021/08/19 06:40:44;;;;;;;5.28;3.77;;;;;;;14.80;70.59;97707.46;1714863;82;21387;-82
2021/08/19 06:43:11;;;;;;;8.03;3.77;;;;;;;14.90;70.04;97710.04;1715390;82;21047;-83
2021/08/19 06:45:37;;;;;;;7.78;3.77;;;;;;;15.01;70.28;97708.16;1715864;83;21495;-84
2021/08/19 06:48:05;;;;;;;8.35;3.67;;;;;;;15.12;69.88;97708.45;1719740;83;21032;-85
2021/08/19 06:50:32;;;;;;;9.10;3.92;;;;;;;15.21;70.10;97708.45;1745746;82;20945;-85
2021/08/19 06:52:59;;;;;;;6.12;3.72;;;;;;;15.31;68.85;97708.80;1734367;82;21047;-84
2021/08/19 06:55:27;;;;;;;6.55;4.15;;;;;;;15.41;69.46;97703.84;1722215;82;20945;-84
2021/08/19 06:57:54;;;;;;;5.90;4.08;;;;;;;15.53;68.60;97707.66;1719148;83;21009;-84
2021/08/19 07:00:21;;;;;;;12.18;3.77;;;;;;;15.64;68.47;97701.71;1720659;82;21019;-84
2021/08/19 07:02:47;;;;;;;8.15;3.83;;;;;;;15.72;68.01;97702.16;1720703;83;21513;-85
2021/08/19 07:05:14;;;;;;;6.85;3.67;;;;;;;15.83;67.23;97699.73;1720324;81;21000;-84
2021/08/19 07:07:41;;;;;;;8.68;3.30;;;;;;;15.94;67.93;97697.84;1720351;82;21004;-84
2021/08/19 07:10:08;;;;;;;5.40;3.50;;;;;;;16.02;68.01;97697.41;1723243;82;20969;-85
2021/08/19 07:12:36;;;;;;;7.33;4.22;;;;;;;16.11;67.84;97692.00;1720636;83;21023;-85
2021/08/19 07:15:06;;;;;;;8.13;3.62;;;;;;;16.20;67.73;97691.97;1719727;83;21052;-85
2021/08/19 07:17:32;;;;;;;6.95;3.40;;;;;;;16.28;66.24;97692.86;1719974;82;21052;-85
2021/08/19 07:20:00;;;;;;;5.47;3.40;;;;;;;16.36;66.96;97693.29;1720416;82;21159;-87
2021/08/19 07:22:27;;;;;;;8.08;3.35;;;;;;;16.43;66.01;97689.75;1684021;84;21082;-88
2021/08/19 07:24:53;;;;;;;6.10;3.47;;;;;;;16.53;64.97;97699.45;1752653;82;21051;-87
2021/08/19 07:27:20;;;;;;;4.70;3.30;;;;;;;16.60;65.24;97694.98;1721789;82;21438;-86
2021/08/19 07:29:47;;;;;;;5.08;3.35;;;;;;;16.69;65.68;97694.06;1721481;82;21012;-87
2021/08/19 07:32:15;;;;;;;6.33;3.25;;;;;;;16.79;64.63;97693.90;1720220;83;20992;-87
2021/08/19 07:34:42;;;;;;;5.70;3.05;;;;;;;16.88;61.85;97685.31;1718470;82;21032;-87
2021/08/19 07:37:09;;;;;;;5.30;3.10;;;;;;;16.97;62.55;97682.55;1716703;82;21128;-85
2021/08/19 07:39:35;;;;;;;4.70;2.90;;;;;;;17.07;63.12;97679.34;1735074;82;20985;-87
2021/08/19 07:42:03;;;;;;;4.78;2.90;;;;;;;17.13;62.34;97677.16;1739258;82;21028;-86
2021/08/19 07:44:29;;;;;;;5.47;3.30;;;;;;;17.22;62.08;97678.86;1731289;82;20969;-86
2021/08/19 07:46:56;;;;;;;3.37;2.47;;;;;;;17.29;61.27;97676.20;1729590;82;20984;-86
2021/08/19 07:49:22;;;;;;;3.75;2.75;;;;;;;17.38;59.50;97677.44;1728185;82;21411;-86
2021/08/19 07:51:49;;;;;;;5.05;2.67;;;;;;;17.46;59.28;97681.84;1720055;82;21168;-85
2021/08/19 07:54:17;;;;;;;4.58;2.50;;;;;;;17.53;59.92;97676.96;1719373;83;21055;-86
2021/08/19 07:56:45;;;;;;;4.17;2.80;;;;;;;17.61;60.22;97684.51;1717392;82;21000;-85
2021/08/19 07:59:12;;;;;;;3.72;3.00;;;;;;;17.67;57.08;97684.11;1718246;82;21084;-87
2021/08/19 08:01:38;;;;;;;6.92;5.35;;;;;;;17.79;55.10;97689.16;1718037;83;21103;-83
2021/08/19 08:04:08;;;;;;;6.20;3.85;;;;;;;17.92;56.12;97686.09;1720463;80;21008;-85
2021/08/19 08:06:34;;;;;;;8.83;4.53;;;;;;;18.03;54.81;97688.55;1720494;83;21488;-83
2021/08/19 08:09:01;;;;;;;3.87;3.20;;;;;;;18.18;54.70;97694.73;1719459;82;21024;-83
2021/08/19 08:11:27;;;;;;;4.55;3.02;;;;;;;18.22;53.61;97695.42;1715077;83;21055;-83
2021/08/19 08:13:54;;;;;;;5.75;2.87;;;;;;;18.25;56.12;97691.17;1720863;83;21048;-83
2021/08/19 08:16:20;;;;;;;3.40;3.05;;;;;;;18.30;55.76;97695.75;1720248;83;22049;-85
2021/08/19 08:18:47;;;;;;;4.00;2.80;;;;;;;18.34;56.11;97686.08;1715736;83;21101;-85
2021/08/19 08:21:14;;;;;;;14.75;10.78;;;;;;;18.40;56.45;97684.78;1687355;84;21012;-85
2021/08/19 08:23:44;;;;;;;9.75;7.00;;;;;;;18.52;56.43;97691.16;1726132;83;21020;-84
2021/08/19 08:26:12;;;;;;;18.55;12.95;;;;;;;18.62;55.28;97688.73;1725143;82;21027;-84
2021/08/19 08:28:39;;;;;;;4.28;2.72;;;;;;;18.70;55.47;97685.52;1701016;84;21023;-85
2021/08/19 08:31:07;;;;;;;4.58;2.72;;;;;;;18.78;54.11;97679.62;1750125;82;20981;-83
2021/08/19 08:33:35;;;;;;;4.70;2.65;;;;;;;18.92;55.82;97685.38;1734380;83;21033;-87
2021/08/19 08:36:02;;;;;;;5.92;3.30;;;;;;;19.03;56.22;97681.96;1700536;84;21012;-83
2021/08/19 08:38:31;;;;;;;6.90;3.10;;;;;;;19.11;55.25;97685.86;1700911;84;20999;-86
2021/08/19 08:40:58;;;;;;;4.08;2.52;;;;;;;19.23;55.29;97681.45;1704237;83;21536;-84
2021/08/19 08:43:25;;;;;;;6.50;2.90;;;;;;;19.37;54.82;97674.25;1700021;84;21041;-84
2021/08/19 08:45:57;;;;;;;4.05;2.77;;;;;;;19.50;53.00;97678.27;1699417;84;21061;-84
2021/08/19 08:48:25;;;;;;;4.22;3.05;;;;;;;19.53;49.33;97684.77;1700980;84;21426;-84
2021/08/19 08:50:56;;;;;;;4.53;2.80;;;;;;;19.48;51.98;97678.37;1699564;84;21076;-85
2021/08/19 08:53:23;;;;;;;4.33;3.30;;;;;;;19.59;51.35;97683.48;1702961;83;21023;-87
2021/08/19 08:55:50;;;;;;;4.45;2.90;;;;;;;19.69;51.65;97679.16;1700740;83;21335;-86
2021/08/19 08:58:17;;;;;;;4.53;3.25;;;;;;;19.80;52.20;97682.39;1700393;84;20964;-87
2021/08/19 09:00:46;;;;;;;3.22;2.83;;;;;;;19.87;52.30;97675.61;1699323;84;21000;-87
2021/08/19 09:03:18;;;;;;;5.22;3.52;;;;;;;19.92;52.29;97675.27;1699449;83;21067;-87
2021/08/19 09:05:48;;;;;;;6.35;3.47;;;;;;;19.95;51.67;97676.39;1700071;83;21206;-86
2021/08/19 09:08:21;;;;;;;3.83;2.95;;;;;;;19.94;52.27;97683.23;1700084;83;21577;-87
2021/08/19 09:10:50;;;;;;;6.10;4.12;;;;;;;19.92;52.48;97680.64;1700206;84;20992;-83
2021/08/19 09:13:23;;;;;;;10.88;4.25;;;;;;;19.90;51.79;97679.91;1700169;84;21071;-87
2021/08/19 09:15:51;;;;;;;6.25;4.75;;;;;;;19.80;48.53;97683.73;1701060;83;21008;-86
2021/08/19 09:18:40;;;;;;;11.40;4.12;;;;;;;19.71;48.16;97696.03;1698337;84;21448;-86
2021/08/19 09:21:23;;;;;;;11.43;4.10;;;;;;;19.68;49.93;97694.89;1697630;83;21003;-87
2021/08/19 09:24:17;;;;;;;3.95;2.85;;;;;;;19.65;49.36;97689.76;1722039;83;21003;-88
2021/08/19 09:26:44;;;;;;;4.83;2.98;;;;;;;19.64;47.99;97690.73;1717006;82;21024;-87
2021/08/19 09:29:14;;;;;;;9.55;4.47;;;;;;;19.64;49.92;97680.82;1701244;83;20948;-85
2021/08/19 09:31:41;;;;;;;4.35;2.83;;;;;;;19.75;49.95;97679.19;1724300;82;21004;-85
2021/08/19 09:34:08;;;;;;;2.65;1.92;;;;;;;19.89;48.95;97674.16;1685179;84;21445;-85
2021/08/19 09:36:36;;;;;;;3.27;2.40;;;;;;;20.09;47.89;97672.70;1725384;83;21016;-85
2021/08/19 09:39:06;;;;;;;3.80;2.60;;;;;;;20.30;49.52;97670.26;1699381;83;21011;-84
2021/08/19 09:41:53;;;;;;;2.52;2.20;;;;;;;20.49;49.55;97669.34;1724201;83;21047;-87
2021/08/19 09:44:34;;;;;;;2.85;2.00;;;;;;;20.67;49.17;97667.08;1718562;83;21059;-86
2021/08/19 09:47:03;;;;;;;3.60;3.08;;;;;;;20.83;47.10;97660.03;1720066;82;21476;-83
2021/08/19 09:49:34;;;;;;;3.85;2.55;;;;;;;21.02;44.67;97659.99;1722492;82;20996;-86
2021/08/19 09:52:12;;;;;;;8.95;2.42;;;;;;;21.13;44.74;97665.39;1718387;83;21035;-86
2021/08/19 09:54:41;;;;;;;3.62;2.40;;;;;;;21.20;44.16;97661.25;1719378;83;21103;-86
2021/08/19 09:57:10;;;;;;;7.50;5.67;;;;;;;21.22;44.77;97664.66;1719307;82;21027;-86
2021/08/19 09:59:40;;;;;;;22.80;16.57;;;;;;;21.14;44.26;97667.13;1719585;83;21004;-86
2021/08/19 10:02:10;;;;;;;3.47;3.12;;;;;;;21.28;44.38;97663.81;1699544;84;20980;-87
2021/08/19 10:04:37;;;;;;;3.25;2.52;;;;;;;21.40;44.37;97666.89;1681316;83;21022;-85
2021/08/19 10:07:04;;;;;;;6.22;2.87;;;;;;;21.50;44.01;97656.22;1728919;81;20998;-83
2021/08/19 10:09:31;;;;;;;4.85;2.05;;;;;;;21.49;41.21;97662.13;1723156;82;20963;-83
2021/08/19 10:11:59;;;;;;;4.22;2.45;;;;;;;21.50;41.72;97654.87;1723633;82;21007;-85
2021/08/19 10:14:30;;;;;;;3.02;2.30;;;;;;;21.43;42.25;97649.62;1711829;81;21052;-83
2021/08/19 10:16:58;;;;;;;3.37;2.47;;;;;;;21.34;42.96;97656.10;1710346;83;20986;-85
2021/08/19 10:19:35;;;;;;;2.60;2.30;;;;;;;21.19;42.77;97654.15;1711775;83;20996;-84
2021/08/19 10:22:16;;;;;;;4.47;2.83;;;;;;;21.21;43.45;97652.18;1686083;84;20984;-83
2021/08/19 10:24:47;;;;;;;2.92;2.30;;;;;;;21.24;43.61;97642.98;1717151;83;21016;-85
2021/08/19 10:27:21;;;;;;;3.12;2.37;;;;;;;21.36;44.15;97649.25;1718722;83;21030;-83
2021/08/19 10:29:59;;;;;;;3.65;2.40;;;;;;;21.50;44.40;97650.83;1730130;82;21006;-84
2021/08/19 10:32:32;;;;;;;2.98;2.33;;;;;;;21.65;43.47;97650.09;1729298;81;21397;-85
2021/08/19 10:35:11;;;;;;;4.35;2.65;;;;;;;21.76;40.88;97652.80;1723627;83;21067;-84
2021/08/19 10:37:55;;;;;;;4.05;3.17;;;;;;;21.80;41.52;97649.86;1722602;83;20975;-86
2021/08/19 10:40:31;;;;;;;4.60;2.50;;;;;;;21.92;41.42;97660.98;1722577;83;21472;-87
2021/08/19 10:43:19;;;;;;;4.90;2.17;;;;;;;22.01;40.93;97660.74;1722951;82;21007;-91
2021/08/19 10:45:46;;;;;;;3.55;2.25;;;;;;;22.33;38.66;97659.89;1722348;83;21071;-86
2021/08/19 10:48:23;;;;;;;3.77;2.58;;;;;;;23.62;39.95;97651.31;1680479;85;21473;-86
2021/08/19 10:50:49;;;;;;;3.58;2.62;;;;;;;24.91;37.58;97636.43;1716767;82;22081;-85
2021/08/19 10:53:24;;;;;;;3.50;2.33;;;;;;;26.30;34.51;97641.27;1720578;83;21510;-85
2021/08/19 10:55:55;;;;;;;4.12;3.08;;;;;;;27.04;31.20;97632.92;1718036;83;21014;-84
2021/08/19 10:58:35;;;;;;;3.80;2.30;;;;;;;27.96;32.22;97628.80;1722200;83;20970;-85
2021/08/19 11:01:20;;;;;;;5.50;2.47;;;;;;;29.12;30.88;97630.80;1720525;81;20994;-85
2021/08/19 11:03:49;;;;;;;11.53;10.05;;;;;;;29.66;28.57;97624.34;1718856;83;21038;-83
2021/08/19 11:06:22;;;;;;;6.35;4.83;;;;;;;29.89;29.75;97632.09;1703496;83;21052;-84
2021/08/19 11:08:59;;;;;;;3.30;2.70;;;;;;;29.18;30.98;97632.82;1698204;84;21058;-84
2021/08/19 11:11:33;;;;;;;4.00;2.30;;;;;;;28.55;32.42;97625.18;1704281;83;21376;-86
2021/08/19 11:14:14;;;;;;;3.77;1.90;;;;;;;29.69;30.57;97628.97;1716980;83;20989;-86
2021/08/19 11:16:44;;;;;;;2.05;1.75;;;;;;;30.34;28.85;97623.86;1694889;84;20979;-86
2021/08/19 11:19:21;;;;;;;3.42;1.98;;;;;;;30.96;28.03;97624.73;1697749;84;21051;-86
2021/08/19 11:21:58;;;;;;;2.52;2.30;;;;;;;31.50;26.75;97617.34;1698263;82;21454;-86
2021/08/19 11:24:28;;;;;;;2.22;2.00;;;;;;;31.58;23.17;97611.78;1698382;83;21514;-86
2021/08/19 11:27:08;;;;;;;2.58;2.02;;;;;;;32.50;25.67;97613.28;1689378;84;21008;-83
2021/08/19 11:29:41;;;;;;;3.35;2.58;;;;;;;32.65;22.99;97608.60;1689002;85;21084;-82
2021/08/19 11:32:14;;;;;;;5.10;4.60;;;;;;;32.75;22.35;97607.42;1701362;82;21394;-86
2021/08/19 11:34:51;;;;;;;3.00;2.70;;;;;;;32.38;21.56;97602.81;1664425;84;21519;-86
2021/08/19 11:37:36;;;;;;;5.33;3.80;;;;;;;32.20;21.99;97605.15;1696595;84;20948;-85
2021/08/19 11:40:00;;;;;;;4.05;2.10;;;;;;;32.35;22.27;97592.77;1674252;84;21012;-84